Time;durP1;ratioP1;P1;durP2;ratioP2;P2;SDS_P1;SDS_P2;PMS_P1;PMS_P2;Temp;Humidity;BMP_temperature;BMP_pressure;BME280_temperature;BME280_humidity;BME280_pressure;Samples;Min_cycle;Max_cycle;Signal;HPM_P1;HPM_P2
2023/07/25 06:14:53;;;;;;;6.80;3.37;;;22.20;99.90;;;;;;5765565;24;20185;31
2023/07/25 06:17:21;;;;;;;10.37;3.93;;;22.20;99.90;;;;;;4707789;30;20240;-83
2023/07/25 06:19:48;;;;;;;11.17;4.43;;;22.20;99.90;;;;;;4700962;30;20216;-85
2023/07/25 06:22:16;;;;;;;7.63;3.77;;;22.20;99.90;;;;;;4687745;30;20274;-84
2023/07/25 06:24:47;;;;;;;6.60;3.43;;;22.00;99.90;;;;;;4687306;30;20651;-83
2023/07/25 06:27:14;;;;;;;9.10;4.00;;;22.10;99.90;;;;;;4688895;30;20225;-82
2023/07/25 06:29:41;;;;;;;4.97;3.10;;;22.20;99.90;;;;;;4686924;30;20493;-82
2023/07/25 06:32:09;;;;;;;5.77;3.33;;;22.30;99.90;;;;;;4700509;30;20227;-83
2023/07/25 06:34:36;;;;;;;8.00;3.47;;;22.10;99.90;;;;;;4686187;30;20769;-83
2023/07/25 06:37:03;;;;;;;9.23;3.80;;;22.10;99.90;;;;;;4686592;30;20228;-84
2023/07/25 06:39:31;;;;;;;6.93;4.00;;;22.10;99.90;;;;;;4685686;30;20278;-81
2023/07/25 06:41:58;;;;;;;6.10;3.20;;;22.10;99.90;;;;;;4685760;30;20331;-82
2023/07/25 06:44:25;;;;;;;6.23;3.23;;;22.10;99.90;;;;;;4686509;30;20226;-82
2023/07/25 06:46:52;;;;;;;7.47;3.17;;;22.00;99.90;;;;;;4699862;30;20499;-81
2023/07/25 06:49:20;;;;;;;4.47;3.00;;;22.10;99.90;;;;;;4686267;30;20201;-80
2023/07/25 06:51:48;;;;;;;4.73;3.23;;;22.20;99.90;;;;;;4685340;30;20319;-82
2023/07/25 06:54:15;;;;;;;4.73;2.77;;;22.20;99.90;;;;;;4685297;30;20193;-81
2023/07/25 06:56:42;;;;;;;6.00;3.10;;;22.20;99.90;;;;;;4685222;30;20323;-84
2023/07/25 06:59:10;;;;;;;4.30;2.90;;;22.30;99.90;;;;;;4685517;30;20211;-83
2023/07/25 07:01:37;;;;;;;6.53;3.20;;;22.40;99.90;;;;;;4667076;30;20225;-82
2023/07/25 07:04:05;;;;;;;6.13;3.17;;;22.60;99.90;;;;;;4652974;30;20350;-83
2023/07/25 07:06:32;;;;;;;4.80;2.90;;;22.50;99.90;;;;;;4667116;30;20233;-81
2023/07/25 07:08:59;;;;;;;5.87;2.90;;;22.50;99.90;;;;;;4653070;30;20213;-80
2023/07/25 07:11:26;;;;;;;6.33;2.67;;;22.60;99.90;;;;;;4667316;30;20198;-83
2023/07/25 07:13:53;;;;;;;5.13;2.60;;;22.70;99.90;;;;;;4652924;30;20652;-83
2023/07/25 07:16:36;;;;;;;4.83;2.33;;;22.60;99.90;;;;;;4666284;30;20296;-82
2023/07/25 07:21:47;;;;;;;3.10;2.28;;;22.80;99.90;;;;;;4810834;24;20253;-84
2023/07/25 07:24:31;;;;;;;4.33;2.40;;;22.90;99.90;;;;;;4720672;30;20214;-85
2023/07/25 07:27:27;;;;;;;4.23;2.27;;;22.90;99.90;;;;;;4658857;30;20640;-84
2023/07/25 07:29:58;;;;;;;3.60;2.30;;;23.00;99.90;;;;;;4670317;30;20295;-84
2023/07/25 07:32:30;;;;;;;4.40;2.67;;;23.10;99.90;;;;;;4655248;30;20260;-81
2023/07/25 07:39:12;;;;;;;4.17;2.17;;;23.30;99.90;;;;;;5174762;24;20333;-83
2023/07/25 07:46:30;;;;;;;3.03;2.15;;;23.30;99.90;;;;;;4721428;30;20226;-82
2023/07/25 07:49:24;;;;;;;4.23;2.37;;;23.30;99.90;;;;;;4736379;30;20368;-86
2023/07/25 07:51:54;;;;;;;4.13;2.00;;;23.30;99.90;;;;;;4737906;30;20218;-83
2023/07/25 07:54:41;;;;;;;6.83;2.80;;;23.50;99.90;;;;;;4737154;30;20213;-83
2023/07/25 07:57:08;;;;;;;6.25;2.10;;;23.40;99.90;;;;;;4722550;30;20283;-83
2023/07/25 08:00:00;;;;;;;2.70;1.90;;;23.50;99.90;;;;;;4722682;30;20206;-82
2023/07/25 08:02:28;;;;;;;2.73;1.77;;;23.60;99.90;;;;;;4722579;30;20614;-84
2023/07/25 08:04:58;;;;;;;3.33;1.90;;;23.70;99.90;;;;;;4722387;30;20645;-82
2023/07/25 08:07:27;;;;;;;2.87;2.10;;;23.80;99.90;;;;;;4737835;30;20257;-81
2023/07/25 08:10:21;;;;;;;3.40;1.90;;;23.70;99.90;;;;;;4723158;30;20414;-85
2023/07/25 08:12:52;;;;;;;5.13;2.00;;;23.70;99.90;;;;;;4737154;30;20218;-84
2023/07/25 08:15:20;;;;;;;2.47;1.70;;;24.00;99.90;;;;;;4722534;30;20555;-82
2023/07/25 08:17:54;;;;;;;3.80;2.00;;;24.10;99.90;;;;;;4723609;30;20227;-83
2023/07/25 08:20:28;;;;;;;6.47;2.33;;;24.20;99.90;;;;;;4723788;30;20233;-83
2023/07/25 08:22:56;;;;;;;4.85;2.20;;;24.10;99.90;;;;;;4737682;30;20681;-84
2023/07/25 08:25:23;;;;;;;4.70;1.60;;;24.50;99.90;;;;;;4723060;30;20226;-81
2023/07/25 08:28:35;;;;;;;4.10;1.70;;;25.30;99.90;;;;;;4723173;30;20437;-84
2023/07/25 08:32:42;;;;;;;3.35;1.55;;;26.10;99.90;;;;;;4613001;31;20227;-83
2023/07/25 08:35:54;;;;;;;3.95;1.95;;;27.00;99.90;;;;;;4547855;31;20321;-83
2023/07/25 08:41:24;;;;;;;4.18;1.90;;;27.60;99.90;;;;;;5392082;24;20241;-85
2023/07/25 08:44:41;;;;;;;;;;;;;;;;;;;;;
2023/07/25 08:48:14;;;;;;;2.67;1.80;;;27.70;99.90;;;;;;5380110;24;20332;-82
2023/07/25 08:52:25;;;;;;;3.05;1.65;;;27.50;99.90;;;;;;4715730;30;20233;-82
2023/07/25 08:55:50;;;;;;;3.20;1.60;;;28.10;99.90;;;;;;4701249;30;20294;-81
2023/07/25 09:02:37;;;;;;;4.45;1.85;;;28.40;99.90;;;;;;4969541;24;20260;-84
2023/07/25 09:05:16;;;;;;;6.50;1.80;;;28.70;99.90;;;;;;5507680;24;20216;-83
2023/07/25 09:07:58;;;;;;;2.42;1.50;;;29.10;99.90;;;;;;4757889;30;20217;-83
2023/07/25 09:14:28;;;;;;;2.85;1.55;;;28.70;99.90;;;;;;5019509;24;20250;-83
2023/07/25 09:19:38;;;;;;;2.50;1.52;;;28.40;99.90;;;;;;5729050;24;20240;-77
2023/07/25 09:46:12;;;;;;;4.07;1.63;;;28.80;98.20;;;;;;5603815;24;20860;-84
2023/07/25 09:53:23;;;;;;;3.05;1.63;;;28.10;97.90;;;;;;5488610;24;20243;-84
2023/07/25 10:33:20;;;;;;;2.00;1.40;;;30.70;91.20;;;;;;4799854;24;20258;-82
2023/07/25 10:45:47;;;;;;;4.00;1.50;;;31.40;88.60;;;;;;5747803;24;20192;-75
2023/07/25 11:18:30;;;;;;;;;;;;;;;;;;;;;
2023/07/25 11:58:23;;;;;;;;;;;;;;;;;;;;;
2023/07/25 12:01:54;;;;;;;6.47;4.70;;;30.20;81.80;;;;;;4740461;30;20205;-81
2023/07/25 12:05:09;;;;;;;6.22;4.20;;;31.00;80.90;;;;;;4718138;30;20206;-83
2023/07/25 12:08:34;;;;;;;3.80;2.22;;;31.70;78.40;;;;;;4725966;30;20250;-82
2023/07/25 18:16:31;;;;;;;3.77;3.07;;;22.40;95.50;;;;;;5733411;24;20245;31
2023/07/25 19:38:16;;;;;;;7.57;3.47;;;20.60;99.90;;;;;;5618743;24;20214;-76
2023/07/25 20:51:40;;;;;;;7.10;3.60;;;19.80;99.90;;;;;;5713977;24;20287;31
2023/07/25 21:04:01;;;;;;;7.87;3.33;;;19.60;99.90;;;;;;4076393;24;20274;-84
2023/07/25 21:06:28;;;;;;;4.37;3.40;;;19.60;99.90;;;;;;4755393;30;20622;-84
2023/07/25 21:08:57;;;;;;;7.13;3.30;;;19.50;99.90;;;;;;4739387;30;20216;-83
2023/07/25 21:11:24;;;;;;;7.73;3.10;;;19.50;99.90;;;;;;4739636;30;20638;-83
2023/07/25 21:13:51;;;;;;;4.90;3.27;;;19.40;99.90;;;;;;4739303;30;20205;-83
2023/07/25 21:16:18;;;;;;;5.23;3.40;;;19.30;99.90;;;;;;4739537;30;20190;-83
2023/07/25 21:18:46;;;;;;;7.53;3.60;;;19.30;99.90;;;;;;4740990;30;20202;-83
2023/07/25 21:21:17;;;;;;;6.30;3.37;;;19.30;99.90;;;;;;4725449;30;20273;-84
2023/07/25 21:24:30;;;;;;;6.83;3.30;;;19.30;99.90;;;;;;4725080;30;20599;-91
2023/07/25 21:43:53;;;;;;;;;;;;;;;;;;;;;
